Time;durP1;ratioP1;P1;durP2;ratioP2;P2;SDS_P1;SDS_P2;PMS_P1;PMS_P2;Temp;Humidity;BMP_temperature;BMP_pressure;BME280_temperature;BME280_humidity;BME280_pressure;Samples;Min_cycle;Max_cycle;Signal;HPM_P1;HPM_P2
2023/08/29 00:02:20;;;;;;;1999.90;999.90;;;;;;;12.68;100.00;93656.03;5007950;28;20195;-49
2023/08/29 00:04:45;;;;;;;1999.90;999.90;;;;;;;12.71;100.00;93668.81;5007909;28;20195;-48
2023/08/29 00:07:10;;;;;;;1999.90;999.90;;;;;;;12.75;100.00;93671.44;5008026;28;20213;-50
2023/08/29 00:09:36;;;;;;;1999.90;999.90;;;;;;;12.72;100.00;93683.28;5008026;28;20194;-52
2023/08/29 00:12:03;;;;;;;1999.90;999.90;;;;;;;12.70;100.00;93681.00;5007492;28;20206;-53
2023/08/29 00:14:28;;;;;;;1999.90;999.90;;;;;;;12.71;100.00;93681.75;5007322;28;20209;-51
2023/08/29 00:16:54;;;;;;;1999.90;999.90;;;;;;;12.74;100.00;93681.63;5007916;28;20210;-53
2023/08/29 00:19:21;;;;;;;1999.90;999.90;;;;;;;12.80;100.00;93679.03;5008248;28;20228;-51
2023/08/29 00:21:47;;;;;;;1999.90;999.90;;;;;;;12.72;100.00;93691.50;5007676;28;20202;-55
2023/08/29 00:24:13;;;;;;;1999.90;999.90;;;;;;;12.74;100.00;93686.31;5007689;28;20218;-56
2023/08/29 00:26:38;;;;;;;1999.90;999.90;;;;;;;12.69;100.00;93679.50;5007994;28;20195;-55
2023/08/29 00:29:03;;;;;;;1999.90;999.90;;;;;;;12.70;100.00;93674.75;5007870;28;20226;-54
2023/08/29 00:31:29;;;;;;;1999.90;999.90;;;;;;;12.72;100.00;93678.56;5007785;28;20226;-54
2023/08/29 00:33:54;;;;;;;1999.90;999.90;;;;;;;12.75;100.00;93676.91;5008088;28;20199;-53
2023/08/29 00:36:20;;;;;;;1999.90;999.90;;;;;;;12.77;100.00;93685.41;5007569;28;20210;-55
2023/08/29 00:38:45;;;;;;;1999.90;999.90;;;;;;;12.78;100.00;93701.38;5007711;28;20199;-56
2023/08/29 00:41:11;;;;;;;1999.90;999.90;;;;;;;12.70;100.00;93702.91;5007729;28;20382;-55
2023/08/29 00:43:37;;;;;;;1999.90;999.90;;;;;;;12.72;100.00;93697.00;5007558;28;20206;-52
2023/08/29 00:46:03;;;;;;;1999.90;999.90;;;;;;;12.71;100.00;93698.19;5007388;28;20514;-53
2023/08/29 00:48:29;;;;;;;1999.90;999.90;;;;;;;12.63;100.00;93705.97;5007436;28;20209;-55
2023/08/29 00:50:55;;;;;;;1999.90;999.90;;;;;;;12.56;100.00;93700.03;5007835;28;20228;-54
2023/08/29 00:53:20;;;;;;;1999.90;999.90;;;;;;;12.56;100.00;93711.75;5007474;28;20202;-54
2023/08/29 00:55:46;;;;;;;1999.90;999.90;;;;;;;12.52;100.00;93713.09;5007452;28;20209;-53
2023/08/29 00:58:12;;;;;;;1999.90;999.90;;;;;;;12.52;100.00;93707.63;5007276;28;20211;-51
2023/08/29 01:00:39;;;;;;;1999.90;999.90;;;;;;;12.46;100.00;93704.75;5007354;28;20230;-51
2023/08/29 01:03:04;;;;;;;1999.90;999.90;;;;;;;12.51;100.00;93700.66;5007132;28;20198;-54
2023/08/29 01:05:29;;;;;;;1999.90;999.90;;;;;;;12.55;100.00;93704.00;5007503;28;20284;-53
2023/08/29 01:07:58;;;;;;;1999.90;999.90;;;;;;;12.57;100.00;93709.78;5007272;28;20198;-52
2023/08/29 01:10:52;;;;;;;1999.90;999.90;;;;;;;12.51;100.00;93695.16;5007207;28;20194;-55
2023/08/29 01:13:25;;;;;;;1999.90;999.90;;;;;;;12.49;100.00;93708.53;5007777;28;20248;-55
2023/08/29 01:15:55;;;;;;;1999.90;999.90;;;;;;;12.49;100.00;93694.84;5007537;28;20210;-53
2023/08/29 01:18:23;;;;;;;1999.90;999.90;;;;;;;12.48;100.00;93701.56;5007504;28;20202;-50
2023/08/29 01:20:50;;;;;;;1999.90;999.90;;;;;;;12.48;100.00;93707.03;5007069;28;20201;-53
2023/08/29 01:23:38;;;;;;;1999.90;999.90;;;;;;;12.44;100.00;93698.22;5007186;28;20210;-52
2023/08/29 01:26:14;;;;;;;1999.90;999.90;;;;;;;12.42;100.00;93698.66;5011103;28;20191;-53
2023/08/29 01:28:42;;;;;;;1999.90;999.90;;;;;;;12.40;100.00;93709.31;5010737;28;20198;-54
2023/08/29 01:31:08;;;;;;;1999.90;999.90;;;;;;;12.38;100.00;93705.50;5010598;28;20198;-50
2023/08/29 01:33:34;;;;;;;1999.90;999.90;;;;;;;12.40;100.00;93705.81;5011175;28;20206;-55
2023/08/29 01:36:00;;;;;;;1999.90;999.90;;;;;;;12.24;100.00;93714.31;5010761;28;20198;-52
2023/08/29 01:38:25;;;;;;;1999.90;999.90;;;;;;;12.24;100.00;93714.31;5010585;28;20410;-55
2023/08/29 01:40:51;;;;;;;1999.90;999.90;;;;;;;12.19;100.00;93723.13;5010991;28;20208;-53
2023/08/29 01:43:16;;;;;;;1999.90;999.90;;;;;;;12.18;100.00;93718.88;5010558;28;20284;-53
2023/08/29 01:45:41;;;;;;;1999.90;999.90;;;;;;;12.12;100.00;93726.16;5010364;28;20217;-55
2023/08/29 01:48:07;;;;;;;1999.90;999.90;;;;;;;12.13;100.00;93731.16;5010494;28;20206;-54
2023/08/29 01:50:36;;;;;;;1999.90;999.90;;;;;;;12.07;100.00;93732.22;5010432;28;20209;-53
2023/08/29 01:53:02;;;;;;;1999.90;999.90;;;;;;;12.13;100.00;93741.38;5010511;28;20195;-51
2023/08/29 01:55:28;;;;;;;1999.90;999.90;;;;;;;12.09;100.00;93735.28;5010288;28;20187;-54
2023/08/29 01:57:55;;;;;;;1999.90;999.90;;;;;;;12.10;100.00;93740.28;5010445;28;20214;-53
2023/08/29 02:00:22;;;;;;;1999.90;999.90;;;;;;;12.04;100.00;93749.53;5010589;28;20240;-54
2023/08/29 02:02:47;;;;;;;1999.90;999.90;;;;;;;12.04;100.00;93749.53;5010610;28;20396;-52
2023/08/29 02:05:12;;;;;;;1999.90;999.90;;;;;;;12.04;100.00;93752.28;5010334;28;20200;-50
2023/08/29 02:07:38;;;;;;;1999.90;999.90;;;;;;;11.95;100.00;93750.28;5010467;28;20198;-53
2023/08/29 02:10:03;;;;;;;1999.90;999.90;;;;;;;11.96;100.00;93754.56;5010379;28;20220;-55
2023/08/29 02:12:29;;;;;;;1999.90;999.90;;;;;;;11.96;100.00;93759.25;5009894;28;20224;-54
2023/08/29 02:14:55;;;;;;;1999.90;999.90;;;;;;;11.93;100.00;93757.41;5010099;28;20202;-54
2023/08/29 02:17:20;;;;;;;1999.90;999.90;;;;;;;11.84;100.00;93754.66;5009915;28;20288;-55
2023/08/29 02:19:46;;;;;;;1999.90;999.90;;;;;;;11.90;100.00;93767.28;5010052;28;20221;-51
2023/08/29 02:22:12;;;;;;;1999.90;999.90;;;;;;;11.81;100.00;93758.28;5010289;28;20190;-54
2023/08/29 02:24:37;;;;;;;1999.90;999.90;;;;;;;11.76;100.00;93761.63;5009650;28;20209;-52
2023/08/29 02:27:04;;;;;;;1999.90;999.90;;;;;;;11.77;100.00;93757.69;5009716;28;20194;-51
2023/08/29 02:29:29;;;;;;;1999.90;999.90;;;;;;;11.75;100.00;93765.56;5009350;28;20247;-58
2023/08/29 02:31:54;;;;;;;1999.90;999.90;;;;;;;11.79;100.00;93760.72;5009582;28;20424;-53
2023/08/29 02:34:20;;;;;;;1999.90;999.90;;;;;;;11.82;100.00;93765.28;5009285;28;20225;-53
2023/08/29 02:36:45;;;;;;;1999.90;999.90;;;;;;;11.87;100.00;93767.44;5009083;28;20229;-49
2023/08/29 02:39:10;;;;;;;1999.90;999.90;;;;;;;11.87;100.00;93772.91;5010001;28;20206;-54
2023/08/29 02:41:36;;;;;;;1999.90;999.90;;;;;;;11.72;100.00;93772.69;5009665;28;20286;-52
2023/08/29 02:44:03;;;;;;;1999.90;999.90;;;;;;;11.69;100.00;93776.31;5009380;28;20198;-56
2023/08/29 02:46:28;;;;;;;1999.90;999.90;;;;;;;11.70;100.00;93777.09;5009287;28;20198;-53
2023/08/29 02:48:54;;;;;;;1999.90;999.90;;;;;;;11.66;100.00;93784.69;5009343;28;20202;-54
2023/08/29 02:51:19;;;;;;;1999.90;999.90;;;;;;;11.65;100.00;93772.22;5009436;28;20202;-55
2023/08/29 02:53:44;;;;;;;1999.90;999.90;;;;;;;11.63;100.00;93774.63;5009089;28;20206;-53
2023/08/29 02:56:10;;;;;;;1999.90;999.90;;;;;;;11.62;100.00;93778.59;5009591;28;20198;-52
2023/08/29 02:58:35;;;;;;;1999.90;999.90;;;;;;;11.59;100.00;93776.72;5009084;28;20207;-52
2023/08/29 03:01:00;;;;;;;1999.90;999.90;;;;;;;11.61;100.00;93783.28;5009210;28;20198;-54
2023/08/29 03:03:26;;;;;;;1999.90;999.90;;;;;;;11.63;100.00;93774.63;5009528;28;20184;-51
2023/08/29 03:05:56;;;;;;;1999.90;999.90;;;;;;;11.64;100.00;93778.88;5009463;28;20199;-55
2023/08/29 03:08:22;;;;;;;1999.90;999.90;;;;;;;11.66;100.00;93785.41;5009367;28;20201;-53
2023/08/29 03:10:49;;;;;;;1999.90;999.90;;;;;;;11.50;100.00;93782.13;5009117;28;20199;-53
2023/08/29 03:13:14;;;;;;;1999.90;999.90;;;;;;;11.53;100.00;93778.50;5008872;28;20261;-54
2023/08/29 03:15:40;;;;;;;1999.90;999.90;;;;;;;11.62;100.00;93778.59;5008699;28;20205;-52
2023/08/29 03:18:06;;;;;;;1999.90;999.90;;;;;;;11.51;100.00;93783.66;5008705;28;20529;-55
2023/08/29 03:20:32;;;;;;;1999.90;999.90;;;;;;;11.59;100.00;93773.97;5008616;28;20268;-53
2023/08/29 03:22:57;;;;;;;1999.90;999.90;;;;;;;11.52;100.00;93774.25;5008516;28;20206;-52
2023/08/29 03:25:23;;;;;;;1999.90;999.90;;;;;;;11.48;100.00;93779.84;5008670;28;20438;-50
2023/08/29 03:27:49;;;;;;;1999.90;999.90;;;;;;;11.51;100.00;93767.25;5008631;28;20198;-53
2023/08/29 03:30:15;;;;;;;1999.90;999.90;;;;;;;11.57;100.00;93773.66;5008688;28;20209;-57
2023/08/29 03:32:40;;;;;;;1999.90;999.90;;;;;;;11.54;100.00;93771.84;5008227;28;20193;-52
2023/08/29 03:35:06;;;;;;;1999.90;999.90;;;;;;;11.65;100.00;93772.22;5009010;28;20406;-54
2023/08/29 03:37:31;;;;;;;1999.90;999.90;;;;;;;11.65;100.00;93772.22;5008086;28;20213;-54
2023/08/29 03:39:56;;;;;;;1999.90;999.90;;;;;;;11.63;100.00;93774.63;5008154;28;20202;-55
2023/08/29 03:42:22;;;;;;;1999.90;999.90;;;;;;;11.61;100.00;93772.34;5008324;28;20208;-56
2023/08/29 03:44:47;;;;;;;1999.90;999.90;;;;;;;11.51;100.00;93775.47;5008420;28;20205;-52
2023/08/29 03:47:12;;;;;;;1999.90;999.90;;;;;;;11.51;100.00;93773.47;5008812;28;20260;-55
2023/08/29 03:49:38;;;;;;;1999.90;999.90;;;;;;;11.53;100.00;93770.28;5008376;28;20210;-54
2023/08/29 03:52:03;;;;;;;1999.90;999.90;;;;;;;11.54;100.00;93777.31;5008139;28;20199;-50
2023/08/29 03:54:29;;;;;;;1999.90;999.90;;;;;;;11.52;100.00;93780.47;5007830;28;20197;-55
2023/08/29 03:56:55;;;;;;;1999.90;999.90;;;;;;;11.62;100.00;93790.25;5008116;28;20218;-53
2023/08/29 03:59:20;;;;;;;1999.90;999.90;;;;;;;11.62;100.00;93786.78;5008417;28;20206;-53
2023/08/29 04:01:46;;;;;;;1999.90;999.90;;;;;;;11.60;100.00;93775.50;5007853;28;20421;-59
2023/08/29 04:04:11;;;;;;;1999.90;999.90;;;;;;;11.74;100.00;93780.44;5008409;28;20192;-49
2023/08/29 04:06:36;;;;;;;1999.90;999.90;;;;;;;11.74;100.00;93796.84;5008350;28;20209;-48
2023/08/29 04:09:03;;;;;;;1999.90;999.90;;;;;;;11.78;100.00;93792.78;5008193;28;20245;-52
2023/08/29 04:11:29;;;;;;;1999.90;999.90;;;;;;;11.74;100.00;93799.59;5008103;28;20211;-50
2023/08/29 04:13:54;;;;;;;1999.90;999.90;;;;;;;11.76;100.00;93805.38;5008093;28;20194;-48
2023/08/29 04:16:19;;;;;;;1999.90;999.90;;;;;;;11.79;100.00;93809.94;5007527;28;20224;-52
2023/08/29 04:18:45;;;;;;;1999.90;999.90;;;;;;;11.78;100.00;93808.41;5007430;28;20277;-52
2023/08/29 04:21:10;;;;;;;1999.90;999.90;;;;;;;11.84;100.00;93806.63;5007844;28;20199;-51
2023/08/29 04:23:36;;;;;;;1999.90;999.90;;;;;;;11.84;100.00;93817.56;5007702;28;20396;-50
2023/08/29 04:26:03;;;;;;;1999.90;999.90;;;;;;;11.82;100.00;93814.50;5007600;28;20235;-50
2023/08/29 04:28:30;;;;;;;1999.90;999.90;;;;;;;11.84;100.00;93812.09;5007808;28;20194;-46
2023/08/29 04:31:17;;;;;;;1999.90;999.90;;;;;;;11.85;100.00;93808.91;5007795;28;20240;-50
2023/08/29 04:33:42;;;;;;;1999.90;999.90;;;;;;;11.81;100.00;93807.53;5008015;28;20197;-46
2023/08/29 04:36:08;;;;;;;1999.90;999.90;;;;;;;11.87;100.00;93822.16;5007792;28;20204;-46
2023/08/29 04:38:34;;;;;;;1999.90;999.90;;;;;;;11.83;100.00;93825.00;5007466;28;20259;-46
2023/08/29 04:40:59;;;;;;;1999.90;999.90;;;;;;;11.85;100.00;93830.03;5007652;28;20194;-46
2023/08/29 04:43:26;;;;;;;1999.90;999.90;;;;;;;11.88;100.00;93820.94;5007448;28;20206;-49
2023/08/29 04:45:51;;;;;;;1999.90;999.90;;;;;;;11.91;100.00;93818.03;5007450;28;20194;-52
2023/08/29 04:48:17;;;;;;;1999.90;999.90;;;;;;;11.95;100.00;93809.72;5007385;28;20224;-54
2023/08/29 04:50:45;;;;;;;1999.90;999.90;;;;;;;11.89;100.00;93809.53;5007302;28;20201;-51
2023/08/29 04:53:10;;;;;;;1999.90;999.90;;;;;;;11.87;100.00;93805.75;5007494;28;20220;-46
2023/08/29 04:55:36;;;;;;;1999.90;999.90;;;;;;;11.91;100.00;93814.56;5007534;28;20191;-47
2023/08/29 04:58:01;;;;;;;1999.90;999.90;;;;;;;11.84;100.00;93812.84;5007260;28;20422;-47
2023/08/29 05:00:26;;;;;;;1999.90;999.90;;;;;;;11.86;100.00;93815.13;5011029;28;20266;-46
2023/08/29 05:02:52;;;;;;;1999.90;999.90;;;;;;;11.85;100.00;93819.09;5011909;28;20212;-51
2023/08/29 05:05:18;;;;;;;1999.90;999.90;;;;;;;11.87;100.00;93816.69;5011549;28;20198;-49
2023/08/29 05:07:43;;;;;;;1999.90;999.90;;;;;;;11.89;100.00;93819.72;5010990;28;20206;-52
2023/08/29 05:10:09;;;;;;;1999.90;999.90;;;;;;;11.86;100.00;93820.59;5011129;28;20202;-50
2023/08/29 05:12:34;;;;;;;1999.90;999.90;;;;;;;11.95;100.00;93823.41;5011002;28;20203;-52
2023/08/29 05:15:00;;;;;;;1999.90;999.90;;;;;;;11.94;100.00;93817.16;5011210;28;20247;-52
2023/08/29 05:17:25;;;;;;;1999.90;999.90;;;;;;;11.98;100.00;93822.50;5011253;28;20213;-55
2023/08/29 05:19:51;;;;;;;1999.90;999.90;;;;;;;11.97;100.00;93820.94;5011004;28;20381;-52
2023/08/29 05:22:17;;;;;;;1999.90;999.90;;;;;;;11.97;100.00;93843.63;5010687;28;20447;-51
2023/08/29 05:24:42;;;;;;;1999.90;999.90;;;;;;;11.94;100.00;93846.47;5010677;28;20309;-46
2023/08/29 05:27:07;;;;;;;1999.90;999.90;;;;;;;12.01;100.00;93846.19;5011289;28;20214;-52
2023/08/29 05:29:33;;;;;;;1999.90;999.90;;;;;;;11.94;100.00;93855.44;5010820;28;20218;-49
2023/08/29 05:31:58;;;;;;;1999.90;999.90;;;;;;;11.96;100.00;93846.78;5011463;28;20194;-50
2023/08/29 05:34:23;;;;;;;1999.90;999.90;;;;;;;11.99;100.00;93843.16;5011070;28;20381;-51
2023/08/29 05:36:49;;;;;;;1999.90;999.90;;;;;;;12.02;100.00;93836.81;5010671;28;20404;-50
2023/08/29 05:39:15;;;;;;;1999.90;999.90;;;;;;;12.01;100.00;93840.72;5010588;28;20265;-50
2023/08/29 05:41:40;;;;;;;1999.90;999.90;;;;;;;12.14;100.00;93846.88;5010602;28;20376;-46
2023/08/29 05:44:05;;;;;;;1999.90;999.90;;;;;;;12.19;100.00;93838.06;5010523;28;20202;-50
2023/08/29 05:46:31;;;;;;;1999.90;999.90;;;;;;;12.25;100.00;93841.75;5010378;28;20205;-51
2023/08/29 05:48:59;;;;;;;1999.90;999.90;;;;;;;12.30;100.00;93855.59;5010411;28;20202;-50
2023/08/29 05:51:24;;;;;;;1999.90;999.90;;;;;;;12.27;100.00;93844.78;5010512;28;20193;-46
2023/08/29 05:53:49;;;;;;;1999.90;999.90;;;;;;;12.27;100.00;93850.25;5010196;28;20240;-49
2023/08/29 05:56:15;;;;;;;1999.90;999.90;;;;;;;12.31;100.00;93848.16;5010219;28;20201;-47
2023/08/29 05:58:40;;;;;;;1999.90;999.90;;;;;;;12.28;100.00;93852.53;5009887;28;20194;-49
2023/08/29 06:01:06;;;;;;;1999.90;999.90;;;;;;;12.31;100.00;93854.38;5010255;28;20262;-48
2023/08/29 06:03:32;;;;;;;1999.90;999.90;;;;;;;12.31;100.00;93851.63;5009935;28;20193;-51
2023/08/29 06:05:58;;;;;;;1999.90;999.90;;;;;;;12.31;100.00;93853.63;5010213;28;20198;-52
2023/08/29 06:08:25;;;;;;;1999.90;999.90;;;;;;;12.27;100.00;93866.66;5010496;28;20198;-47
2023/08/29 06:10:50;;;;;;;1999.90;999.90;;;;;;;12.29;100.00;93869.72;5008688;28;20220;-51
2023/08/29 06:13:16;;;;;;;1999.90;999.90;;;;;;;12.29;100.00;93875.97;5010046;28;20265;-48
2023/08/29 06:15:42;;;;;;;1999.90;999.90;;;;;;;12.42;100.00;93878.59;5010094;28;20209;-53
2023/08/29 06:18:08;;;;;;;1999.90;999.90;;;;;;;12.45;100.00;93883.94;5010100;28;20210;-52
2023/08/29 06:20:34;;;;;;;1999.90;999.90;;;;;;;12.44;100.00;93887.13;5009966;28;20198;-53
2023/08/29 06:22:59;;;;;;;1999.90;999.90;;;;;;;12.52;100.00;93883.66;5009411;28;20206;-52
2023/08/29 06:25:24;;;;;;;1999.90;999.90;;;;;;;12.54;100.00;93891.41;5009871;28;20202;-51
2023/08/29 06:27:50;;;;;;;1999.90;999.90;;;;;;;12.51;100.00;93881.34;5009971;28;20398;-54
2023/08/29 06:30:16;;;;;;;1999.90;999.90;;;;;;;12.60;100.00;93889.59;5009693;28;20201;-52
2023/08/29 06:32:42;;;;;;;1999.90;999.90;;;;;;;12.66;100.00;93887.78;5009802;28;20205;-49
2023/08/29 06:35:09;;;;;;;1999.90;999.90;;;;;;;12.68;100.00;93899.06;5009771;28;20253;-48
2023/08/29 06:37:36;;;;;;;1999.90;999.90;;;;;;;12.62;100.00;93909.06;5009406;28;20290;-51
2023/08/29 06:40:01;;;;;;;1999.90;999.90;;;;;;;12.60;100.00;93917.75;5009489;28;20205;-49
2023/08/29 06:42:27;;;;;;;1999.90;999.90;;;;;;;12.69;100.00;93920.53;5009790;28;20203;-46
2023/08/29 06:44:57;;;;;;;1999.90;999.90;;;;;;;12.63;100.00;93930.53;5009253;28;20194;-46
2023/08/29 06:47:22;;;;;;;1999.90;999.90;;;;;;;12.61;100.00;93940.44;5009301;28;20208;-48
2023/08/29 06:49:47;;;;;;;1999.90;999.90;;;;;;;12.68;100.00;93945.63;5009298;28;20198;-49
2023/08/29 06:52:12;;;;;;;1999.90;999.90;;;;;;;12.70;100.00;93940.44;5009366;28;20418;-50
2023/08/29 06:54:38;;;;;;;1999.90;999.90;;;;;;;12.78;100.00;93944.41;5009576;28;20408;-50
2023/08/29 06:57:04;;;;;;;1999.90;999.90;;;;;;;12.79;100.00;93937.75;5009004;28;20286;-46
2023/08/29 06:59:29;;;;;;;1999.90;999.90;;;;;;;12.78;100.00;93941.69;5009339;28;20574;-50
2023/08/29 07:01:54;;;;;;;1999.90;999.90;;;;;;;12.67;100.00;93936.63;5009362;28;20197;-49
2023/08/29 07:04:20;;;;;;;1999.90;999.90;;;;;;;12.74;100.00;93943.81;5009224;28;20209;-48
2023/08/29 07:06:45;;;;;;;1999.90;999.90;;;;;;;12.81;100.00;93944.28;5008715;28;20230;-45
2023/08/29 07:09:10;;;;;;;1999.90;999.90;;;;;;;12.76;100.00;93946.88;5008891;28;20194;-45
2023/08/29 07:11:36;;;;;;;1999.90;999.90;;;;;;;12.81;100.00;93955.25;5008760;28;20206;-47
2023/08/29 07:14:01;;;;;;;1999.90;999.90;;;;;;;12.74;100.00;93943.81;5008738;28;20192;-47
2023/08/29 07:16:26;;;;;;;1999.90;999.90;;;;;;;12.78;100.00;93955.38;5008750;28;20215;-46
2023/08/29 07:18:52;;;;;;;1999.90;999.90;;;;;;;12.86;100.00;93956.63;5008670;28;20374;-52
2023/08/29 07:21:17;;;;;;;1999.90;999.90;;;;;;;12.94;100.00;93966.09;5008402;28;20529;-50
2023/08/29 07:23:43;;;;;;;1999.90;999.90;;;;;;;13.04;100.00;93967.69;5008402;28;20209;-46
2023/08/29 07:26:08;;;;;;;1999.90;999.90;;;;;;;13.07;100.00;93967.53;5008676;28;20226;-48
2023/08/29 07:28:34;;;;;;;1999.90;999.90;;;;;;;13.10;100.00;93965.84;5008633;28;20266;-46
2023/08/29 07:30:59;;;;;;;1999.90;999.90;;;;;;;13.15;100.00;93979.72;5008863;28;20199;-48
2023/08/29 07:33:24;;;;;;;1999.90;999.90;;;;;;;13.05;100.00;93977.41;5008502;28;20198;-46
2023/08/29 07:35:50;;;;;;;1999.90;999.90;;;;;;;13.12;100.00;93974.38;5008776;28;20210;-47
2023/08/29 07:38:17;;;;;;;1999.90;999.90;;;;;;;13.16;100.00;93975.00;5008867;28;20242;-50
2023/08/29 07:40:45;;;;;;;1999.90;999.90;;;;;;;13.27;100.00;93980.81;5008153;28;20202;-51
2023/08/29 07:43:10;;;;;;;1999.90;999.90;;;;;;;13.28;100.00;93976.84;5008134;28;20198;-50
2023/08/29 07:45:36;;;;;;;1999.90;999.90;;;;;;;13.19;100.00;93990.56;5008126;28;20194;-47
2023/08/29 07:48:02;;;;;;;1999.90;999.90;;;;;;;13.26;100.00;93984.78;5008250;28;20281;-52
2023/08/29 07:50:28;;;;;;;1999.90;999.90;;;;;;;13.34;100.00;93980.53;5008023;28;20190;-47
2023/08/29 07:52:54;;;;;;;1999.90;999.90;;;;;;;13.25;100.00;93985.97;5007969;28;20218;-51
2023/08/29 07:55:20;;;;;;;1999.90;999.90;;;;;;;13.29;100.00;93983.84;5008112;28;20221;-50
2023/08/29 07:57:46;;;;;;;1999.90;999.90;;;;;;;13.47;100.00;93986.63;5007906;28;20210;-51
2023/08/29 08:00:12;;;;;;;1999.90;999.90;;;;;;;13.60;100.00;93981.75;5008125;28;20194;-49
2023/08/29 08:02:41;;;;;;;1999.90;999.90;;;;;;;13.62;100.00;93984.78;5007943;28;20230;-47
2023/08/29 08:05:11;;;;;;;1999.90;999.90;;;;;;;13.70;100.00;93986.03;5008257;28;20182;-50
2023/08/29 08:07:41;;;;;;;1999.90;999.90;;;;;;;13.72;100.00;93989.06;5007942;28;20190;-49
2023/08/29 08:10:08;;;;;;;1999.90;999.90;;;;;;;13.65;100.00;94005.84;5008074;28;20230;-52
2023/08/29 08:12:35;;;;;;;1999.90;999.90;;;;;;;13.64;100.00;94004.31;5007708;28;20194;-48
2023/08/29 08:15:04;;;;;;;1999.90;999.90;;;;;;;13.65;100.00;94005.84;5007699;28;20198;-47
2023/08/29 08:17:30;;;;;;;1999.90;999.90;;;;;;;13.66;100.00;94001.88;5007436;28;20221;-47
2023/08/29 08:19:56;;;;;;;1999.90;999.90;;;;;;;13.66;100.00;94007.34;5008194;28;20191;-47
2023/08/29 08:22:23;;;;;;;1999.90;999.90;;;;;;;13.80;100.00;94006.75;5007382;28;20205;-50
2023/08/29 08:24:48;;;;;;;1999.90;999.90;;;;;;;13.76;100.00;93995.16;5007799;28;20249;-49
2023/08/29 08:27:13;;;;;;;1999.90;999.90;;;;;;;13.70;100.00;94002.50;5007699;28;20198;-45
2023/08/29 08:29:39;;;;;;;1999.90;999.90;;;;;;;13.70;100.00;94001.72;5007808;28;20362;-46
2023/08/29 08:32:05;;;;;;;1999.90;999.90;;;;;;;13.74;100.00;94008.59;5007659;28;20197;-52
2023/08/29 08:34:30;;;;;;;1999.90;999.90;;;;;;;13.75;100.00;94014.81;5006910;28;20242;-49
2023/08/29 08:36:55;;;;;;;1999.90;999.90;;;;;;;13.83;100.00;94005.84;5007082;28;20226;-49
2023/08/29 08:39:21;;;;;;;1999.90;999.90;;;;;;;13.85;100.00;94008.13;5007873;28;20197;-50
2023/08/29 08:41:46;;;;;;;1999.90;999.90;;;;;;;13.84;100.00;94007.34;5007289;28;20198;-52
2023/08/29 08:44:16;;;;;;;1999.90;999.90;;;;;;;13.79;100.00;94002.50;5007541;28;20195;-51
2023/08/29 08:46:46;;;;;;;1999.90;999.90;;;;;;;13.94;100.00;94022.59;5007160;28;20219;-54
2023/08/29 08:49:12;;;;;;;1999.90;999.90;;;;;;;14.03;100.00;94030.84;5007863;28;20191;-51
2023/08/29 08:51:40;;;;;;;1999.90;999.90;;;;;;;13.93;100.00;94039.53;5007474;28;20198;-51
2023/08/29 08:54:07;;;;;;;1999.90;999.90;;;;;;;13.99;100.00;94030.22;5007328;28;20223;-49
2023/08/29 08:56:32;;;;;;;1999.90;999.90;;;;;;;14.10;100.00;94025.06;5007131;28;20202;-50
2023/08/29 08:58:59;;;;;;;1999.90;999.90;;;;;;;14.16;100.00;94025.22;5007225;28;20355;-49
2023/08/29 09:01:24;;;;;;;1999.90;999.90;;;;;;;14.33;100.00;94010.72;5007582;28;20198;-50
2023/08/29 09:03:50;;;;;;;1999.90;999.90;;;;;;;14.31;100.00;94010.41;5007548;28;20199;-52
2023/08/29 09:06:16;;;;;;;1999.90;999.90;;;;;;;14.36;100.00;93992.53;5007235;28;20211;-49
2023/08/29 09:08:41;;;;;;;1999.90;999.90;;;;;;;14.25;100.00;93982.03;5007539;28;20195;-51
2023/08/29 09:11:06;;;;;;;1999.90;999.90;;;;;;;14.42;100.00;93966.72;5006916;28;20198;-52
2023/08/29 09:13:32;;;;;;;1999.90;999.90;;;;;;;14.40;100.00;93952.72;5007241;28;20262;-51
2023/08/29 09:15:58;;;;;;;1999.90;999.90;;;;;;;14.49;100.00;93947.19;5007061;28;20218;-49
2023/08/29 09:18:25;;;;;;;1999.90;999.90;;;;;;;14.49;100.00;93919.69;5007202;28;20218;-47
2023/08/29 09:20:54;;;;;;;1999.90;999.90;;;;;;;14.58;100.00;93889.47;5006928;28;20223;-51
2023/08/29 09:23:24;;;;;;;1999.90;999.90;;;;;;;14.46;100.00;93871.19;5007064;28;20199;-48
2023/08/29 09:25:54;;;;;;;1999.90;999.90;;;;;;;14.54;100.00;93842.16;5007238;28;20195;-47
2023/08/29 09:28:20;;;;;;;1999.90;999.90;;;;;;;14.61;100.00;93830.81;5007056;28;20387;-47
2023/08/29 09:30:46;;;;;;;1999.90;999.90;;;;;;;14.69;100.00;93810.03;5007138;28;20203;-49
2023/08/29 09:33:12;;;;;;;1999.90;999.90;;;;;;;14.66;100.00;93808.19;5006976;28;20381;-48
2023/08/29 09:35:37;;;;;;;1999.90;999.90;;;;;;;14.54;100.00;93795.47;5006846;28;20203;-48
2023/08/29 09:38:03;;;;;;;1999.90;999.90;;;;;;;14.44;100.00;93787.72;5007163;28;20287;-47
2023/08/29 09:40:28;;;;;;;1999.90;999.90;;;;;;;14.39;100.00;93778.13;5006997;28;20415;-48
2023/08/29 09:42:59;;;;;;;1999.90;999.90;;;;;;;14.41;100.00;93772.94;5007105;28;20230;-47
2023/08/29 09:45:25;;;;;;;1999.90;999.90;;;;;;;14.69;100.00;93763.31;5008463;28;20195;-47
2023/08/29 09:47:52;;;;;;;1999.90;999.90;;;;;;;14.86;100.00;93777.38;5010760;28;20195;-48
2023/08/29 09:50:22;;;;;;;1999.90;999.90;;;;;;;14.74;100.00;93773.63;5010463;28;20269;-53
2023/08/29 09:52:51;;;;;;;1999.90;999.90;;;;;;;14.80;100.00;93758.03;5010529;28;20278;-50
2023/08/29 09:55:19;;;;;;;1999.90;999.90;;;;;;;14.73;100.00;93752.88;5010077;28;20203;-49
2023/08/29 09:57:48;;;;;;;1999.90;999.90;;;;;;;14.67;100.00;93752.00;5010577;28;20249;-50
2023/08/29 10:00:15;;;;;;;1999.90;999.90;;;;;;;14.71;100.00;93741.59;5009795;28;20221;-47
2023/08/29 10:02:41;;;;;;;1999.90;999.90;;;;;;;14.72;100.00;93739.63;5010556;28;20199;-47
2023/08/29 10:05:09;;;;;;;1999.90;999.90;;;;;;;14.86;100.00;93723.16;5010091;28;20190;-51
2023/08/29 10:07:48;;;;;;;1999.90;999.90;;;;;;;14.82;100.00;93719.81;5010191;28;20210;-49
2023/08/29 10:10:14;;;;;;;1999.90;999.90;;;;;;;14.69;100.00;93730.34;5009987;28;20260;-49
2023/08/29 10:12:40;;;;;;;1999.90;999.90;;;;;;;14.75;100.00;93709.19;5010024;28;20199;-50
2023/08/29 10:15:06;;;;;;;1999.90;999.90;;;;;;;14.69;100.00;93711.09;5010656;28;20226;-51
2023/08/29 10:17:34;;;;;;;1999.90;999.90;;;;;;;14.65;100.00;93713.28;5009898;28;20503;-50
2023/08/29 10:20:00;;;;;;;1999.90;999.90;;;;;;;14.66;100.00;93692.78;5010219;28;20269;-51
2023/08/29 10:22:29;;;;;;;1999.90;999.90;;;;;;;14.67;100.00;93688.03;5010335;28;20237;-50
2023/08/29 10:24:58;;;;;;;1999.90;999.90;;;;;;;14.75;100.00;93656.97;5010064;28;20201;-49
2023/08/29 10:27:23;;;;;;;1999.90;999.90;;;;;;;14.81;100.00;93644.09;5010049;28;20230;-48
2023/08/29 10:29:48;;;;;;;1999.90;999.90;;;;;;;14.82;100.00;93640.13;5009900;28;20227;-47
2023/08/29 10:32:14;;;;;;;1999.90;999.90;;;;;;;14.65;100.00;93625.34;5010189;28;20191;-51
2023/08/29 10:34:40;;;;;;;1999.90;999.90;;;;;;;14.62;100.00;93604.31;5009614;28;20274;-51
2023/08/29 10:37:16;;;;;;;1999.90;999.90;;;;;;;14.53;100.00;93600.88;5009621;28;20206;-53
2023/08/29 10:39:42;;;;;;;1999.90;999.90;;;;;;;14.35;100.00;93590.81;5009454;28;20199;-55
2023/08/29 10:42:08;;;;;;;1999.90;999.90;;;;;;;14.27;100.00;93567.69;5010011;28;20199;-53
2023/08/29 10:44:40;;;;;;;1999.90;999.90;;;;;;;14.35;100.00;93563.34;5009610;28;20269;-53